Terminal Aerodrome Forecast
Issued by NWS

Home | Current Version | Previous Version | Text Only | Print | Product List | Glossary On
Versions: 1 2 3 4 5 6 7 8 9 10 11 12 13 14 15 16 17 18
000
FTUS46 KPDT 281700
TAFRDM
TAF
KRDM 281720Z 2818/2918 29013KT P6SM VCSH SCT060 BKN080
     FM282100 30010KT P6SM SCT050 BKN080
     FM290200 29005KT P6SM SCT040 BKN100
     FM290900 29007KT P6SM VCSH SCT030 OVC060=

USA.gov is the U.S. government's official web portal to all federal, state and local government web resources and services.